createdAt,value
2017-09-01T00:01:34.425Z,5.23
2017-09-01T00:03:43.613Z,5.23
2017-09-01T00:05:52.587Z,5.80
2017-09-01T00:08:02.321Z,5.60
2017-09-01T00:10:11.534Z,5.30
2017-09-01T00:12:20.507Z,5.77
2017-09-01T00:14:31.480Z,5.10
2017-09-01T00:16:42.454Z,5.83
2017-09-01T00:18:51.123Z,5.43
2017-09-01T00:21:03.962Z,5.27
2017-09-01T00:23:11.625Z,5.70
2017-09-01T00:25:21.265Z,5.27
2017-09-01T00:27:31.116Z,5.53
2017-09-01T00:29:41.298Z,5.00
2017-09-01T00:31:50.078Z,4.60
2017-09-01T00:33:59.246Z,4.60
2017-09-01T00:36:08.021Z,5.17
2017-09-01T00:38:18.196Z,5.07
2017-09-01T00:40:28.168Z,4.80
2017-09-01T00:42:36.149Z,5.97
2017-09-01T00:44:46.119Z,5.60
2017-09-01T00:46:58.094Z,5.70
2017-09-01T00:49:10.064Z,5.30
2017-09-01T00:51:17.846Z,5.40
2017-09-01T00:53:26.767Z,4.90
2017-09-01T00:55:35.586Z,5.10
2017-09-01T00:57:44.972Z,5.47
2017-09-01T00:59:54.046Z,5.40
2017-09-01T01:02:04.703Z,6.20
2017-09-01T01:04:16.083Z,5.60
2017-09-01T01:06:25.414Z,5.30
2017-09-01T01:08:36.839Z,4.70
2017-09-01T01:10:44.804Z,5.23
2017-09-01T01:12:54.781Z,5.53
2017-09-01T01:15:04.754Z,5.63
2017-09-01T01:17:13.502Z,6.10
2017-09-01T01:19:21.809Z,5.63
2017-09-01T01:21:30.675Z,5.67
2017-09-01T01:23:38.832Z,4.90
2017-09-01T01:25:45.628Z,5.73
2017-09-01T01:27:52.659Z,5.10
2017-09-01T01:29:57.509Z,5.60
2017-09-01T01:32:06.429Z,6.20
2017-09-01T01:34:15.765Z,5.47
2017-09-01T01:36:26.114Z,5.70
2017-09-01T01:38:33.808Z,5.40
2017-09-01T01:40:43.449Z,5.77
2017-09-01T01:42:53.422Z,5.33
2017-09-01T01:45:05.413Z,6.20
2017-09-01T01:47:15.128Z,5.20
2017-09-01T01:49:23.339Z,5.90
2017-09-01T01:51:31.126Z,5.30
2017-09-01T01:53:43.287Z,5.23
2017-09-01T01:55:51.222Z,6.23
2017-09-01T01:57:59.236Z,6.20
2017-09-01T02:00:06.710Z,5.27
2017-09-01T02:02:17.186Z,6.20
2017-09-01T02:04:24.860Z,5.97
2017-09-01T02:06:34.133Z,5.87
2017-09-01T02:08:43.833Z,5.27
2017-09-01T02:10:55.081Z,6.07
2017-09-01T02:13:06.054Z,5.13
2017-09-01T02:15:15.304Z,5.20
2017-09-01T02:17:23.815Z,4.77
2017-09-01T02:19:36.934Z,5.50
2017-09-01T02:21:45.951Z,5.07
2017-09-01T02:23:54.570Z,5.47
2017-09-01T02:26:02.775Z,6.10
2017-09-01T02:28:12.414Z,5.40
2017-09-01T02:30:17.959Z,6.10
2017-09-01T02:32:27.401Z,4.90
2017-09-01T02:34:38.468Z,5.13
2017-09-01T02:36:46.049Z,5.47
2017-09-01T02:38:55.743Z,5.23
2017-09-01T02:41:04.508Z,4.67
2017-09-01T02:43:14.716Z,5.23
2017-09-01T02:45:23.477Z,5.20
2017-09-01T02:47:36.641Z,5.83
2017-09-01T02:49:45.617Z,5.20
2017-09-01T02:51:55.586Z,5.07
2017-09-01T02:54:04.406Z,5.70
2017-09-01T02:56:10.537Z,5.50
2017-09-01T02:58:16.390Z,5.80
2017-09-01T03:00:24.596Z,5.10
2017-09-01T03:02:33.721Z,5.40
2017-09-01T03:04:41.311Z,5.57
2017-09-01T03:06:52.283Z,5.50
2017-09-01T03:09:00.282Z,4.83
2017-09-01T03:11:08.898Z,5.33
2017-09-01T03:13:22.833Z,4.87
2017-09-01T03:15:31.858Z,5.17
2017-09-01T03:17:40.272Z,5.97
2017-09-01T03:19:50.252Z,5.60
2017-09-01T03:21:59.448Z,4.70
2017-09-01T03:24:12.215Z,6.47
2017-09-01T03:26:20.175Z,6.17
2017-09-01T03:28:32.472Z,5.73
2017-09-01T03:30:39.734Z,5.37
2017-09-01T03:32:48.553Z,5.33
2017-09-01T03:34:53.685Z,5.30
2017-09-01T03:37:04.063Z,5.50
2017-09-01T03:39:14.043Z,4.57
2017-09-01T03:41:23.320Z,5.90
2017-09-01T03:43:29.004Z,4.97
2017-09-01T03:45:39.838Z,5.10
2017-09-01T03:47:49.674Z,5.53
2017-09-01T03:49:57.890Z,5.10
2017-09-01T03:52:05.473Z,4.97
2017-09-01T03:54:15.839Z,5.03
2017-09-01T03:56:25.814Z,5.00
2017-09-01T03:58:34.073Z,5.43
2017-09-01T04:00:42.776Z,4.87
2017-09-01T04:02:48.736Z,5.63
2017-09-01T04:04:58.711Z,5.90
2017-09-01T04:07:08.687Z,4.50
2017-09-01T04:09:17.556Z,4.93
2017-09-01T04:11:24.124Z,5.10
2017-09-01T04:13:34.611Z,4.77
2017-09-01T04:15:46.582Z,4.87
2017-09-01T04:17:54.564Z,5.20
2017-09-01T04:20:04.539Z,5.03
2017-09-01T04:22:13.504Z,5.27
2017-09-01T04:24:22.977Z,4.90
2017-09-01T04:26:34.766Z,5.07
2017-09-01T04:28:43.177Z,5.27
2017-09-01T04:30:49.409Z,5.23
2017-09-01T04:32:58.376Z,4.87
2017-09-01T04:35:08.302Z,4.70
2017-09-01T04:54:33.124Z,5.80
2017-09-01T04:56:42.108Z,5.47
2017-09-01T04:58:51.551Z,4.70
2017-09-01T05:18:14.715Z,5.67
2017-09-01T05:37:40.608Z,6.33
2017-09-01T05:39:51.195Z,5.67
2017-09-01T05:42:03.394Z,6.43
2017-09-01T05:44:09.344Z,5.50
2017-09-01T06:03:35.298Z,6.13
2017-09-01T06:05:43.480Z,6.60
2017-09-01T06:07:53.260Z,6.10
2017-09-01T06:10:01.225Z,7.10
2017-09-01T06:12:10.960Z,6.60
2017-09-01T06:14:20.171Z,6.27
2017-09-01T06:16:28.594Z,6.40
2017-09-01T06:18:36.598Z,6.83
2017-09-01T06:20:45.091Z,6.13
2017-09-01T06:22:56.385Z,6.90
2017-09-01T06:42:18.517Z,6.30
2017-09-01T06:44:27.953Z,6.30
2017-09-01T07:03:50.289Z,6.90
2017-09-01T07:06:01.553Z,6.37
2017-09-01T07:08:11.611Z,6.73
2017-09-01T07:10:22.077Z,6.90
2017-09-01T07:12:29.538Z,6.47
2017-09-01T07:14:36.948Z,5.50
2017-09-01T07:16:43.001Z,5.73
2017-09-01T07:18:50.283Z,6.43
2017-09-01T07:20:58.597Z,6.60
2017-09-01T07:23:08.354Z,7.10
2017-09-01T07:25:18.177Z,6.30
2017-09-01T07:27:27.296Z,6.50
2017-09-01T07:29:36.270Z,5.97
2017-09-01T07:31:44.244Z,6.80
2017-09-01T07:33:51.099Z,6.40
2017-09-01T07:35:58.094Z,6.20
2017-09-01T07:38:07.608Z,6.60
2017-09-01T07:57:31.963Z,6.17
2017-09-01T07:59:43.788Z,5.80
2017-09-01T08:19:05.303Z,5.20
2017-09-01T08:21:11.767Z,4.97
2017-09-01T08:23:21.631Z,5.57
2017-09-01T08:25:29.405Z,6.10
2017-09-01T08:27:39.145Z,5.40
2017-09-01T08:29:47.554Z,5.50
2017-09-01T08:31:56.527Z,5.10
2017-09-01T08:34:02.739Z,5.93
2017-09-01T08:36:13.475Z,5.00
2017-09-01T08:38:25.906Z,5.60
2017-09-01T08:40:34.210Z,5.57
2017-09-01T08:42:46.398Z,5.37
2017-09-01T08:44:55.641Z,5.07
2017-09-01T09:04:20.143Z,4.40
2017-09-01T09:06:29.119Z,5.37
2017-09-01T09:08:37.125Z,5.60
2017-09-01T09:28:08.863Z,6.30
2017-09-01T09:47:29.629Z,5.10
2017-09-01T09:49:39.560Z,4.67
2017-09-01T09:51:47.578Z,5.50
2017-09-01T10:11:13.348Z,5.20
2017-09-01T10:30:38.899Z,5.13
2017-09-01T10:53:03.718Z,5.33
2017-09-01T10:55:22.826Z,4.80
2017-09-01T11:14:47.160Z,4.50
2017-09-01T11:34:12.170Z,4.20
2017-09-01T11:36:19.340Z,4.13
2017-09-01T11:38:28.061Z,3.80
2017-09-01T11:57:56.651Z,3.70
2017-09-01T12:17:20.853Z,4.03
2017-09-01T12:36:44.632Z,3.70
2017-09-01T12:56:09.611Z,8.00
2017-09-01T13:15:33.164Z,5.93
2017-09-01T13:34:59.933Z,5.93
2017-09-01T13:54:24.703Z,6.00
2017-09-01T13:56:35.284Z,5.70
2017-09-01T13:58:47.072Z,5.63
2017-09-01T14:00:57.122Z,4.87
2017-09-01T14:03:07.063Z,4.90
2017-09-01T14:05:12.812Z,5.07
2017-09-01T14:07:21.550Z,5.87
2017-09-01T14:09:30.347Z,4.90
2017-09-01T14:11:39.163Z,4.00
2017-09-01T14:13:48.468Z,4.90
2017-09-01T14:16:00.440Z,4.33
2017-09-01T14:18:12.418Z,3.83
2017-09-01T14:20:17.920Z,4.70
2017-09-01T14:22:27.865Z,4.30
2017-09-01T14:24:38.117Z,4.10
2017-09-01T14:26:48.311Z,4.53
2017-09-01T14:28:58.302Z,3.83
2017-09-01T14:31:08.059Z,3.63
2017-09-01T14:33:16.980Z,4.13
2017-09-01T14:35:25.696Z,4.40
2017-09-01T14:37:37.176Z,4.03
2017-09-01T14:39:45.584Z,3.90
2017-09-01T14:41:53.997Z,4.30
2017-09-01T14:44:01.894Z,3.50
2017-09-01T14:46:12.080Z,4.33
2017-09-01T14:48:21.054Z,4.23
2017-09-01T14:50:33.028Z,3.70
2017-09-01T14:52:41.011Z,3.47
2017-09-01T14:54:46.093Z,3.80
2017-09-01T14:56:54.985Z,5.00
2017-09-01T14:59:02.707Z,3.87
2017-09-01T15:01:11.903Z,3.50
2017-09-01T15:03:19.626Z,3.57
2017-09-01T15:05:29.852Z,4.40
2017-09-01T15:07:42.825Z,3.90
2017-09-01T15:09:51.611Z,4.37
2017-09-01T15:29:15.695Z,5.10
2017-09-01T15:48:39.343Z,4.47
2017-09-01T16:08:03.630Z,5.00
2017-09-01T16:27:28.143Z,5.10
2017-09-01T16:29:36.857Z,6.10
2017-09-01T16:31:44.969Z,5.80
2017-09-01T16:33:54.811Z,4.50
2017-09-01T16:36:02.190Z,4.90
2017-09-01T16:38:09.761Z,4.60
2017-09-01T16:40:17.166Z,5.20
2017-09-01T16:42:26.395Z,5.57
2017-09-01T16:44:37.683Z,6.20
2017-09-01T16:46:47.668Z,4.50
2017-09-01T16:48:57.052Z,4.60
2017-09-01T16:51:05.157Z,6.27
2017-09-01T16:53:17.250Z,4.80
2017-09-01T16:55:27.579Z,4.50
2017-09-01T16:57:36.534Z,5.10
2017-09-01T16:59:45.959Z,4.67
2017-09-01T17:19:10.243Z,5.70
2017-09-01T17:21:18.959Z,5.53
2017-09-01T17:23:28.222Z,4.80
2017-09-01T17:25:36.491Z,6.17
2017-09-01T17:27:44.172Z,4.60
2017-09-01T17:47:10.941Z,5.77
2017-09-01T17:49:17.916Z,7.13
2017-09-01T17:51:26.723Z,6.83
2017-09-01T17:53:37.865Z,6.40
2017-09-01T17:55:48.838Z,6.47
2017-09-01T17:57:57.692Z,7.00
2017-09-01T18:00:06.787Z,7.63
2017-09-01T18:02:15.761Z,6.67
2017-09-01T18:04:25.232Z,7.43
2017-09-01T18:23:47.609Z,6.40
2017-09-01T18:25:57.659Z,6.83
2017-09-01T18:28:05.042Z,7.40
2017-09-01T18:30:12.019Z,6.13
2017-09-01T18:32:23.405Z,6.70
2017-09-01T18:34:32.381Z,6.30
2017-09-01T18:36:43.356Z,6.97
2017-09-01T18:38:52.317Z,6.97
2017-09-01T18:40:59.905Z,6.50
2017-09-01T18:43:12.276Z,6.87
2017-09-01T18:45:20.714Z,8.43
2017-09-01T18:47:31.683Z,6.80
2017-09-01T18:49:44.089Z,7.93
2017-09-01T18:51:54.171Z,7.60
2017-09-01T18:54:01.318Z,7.20
2017-09-01T18:56:12.804Z,6.97
2017-09-01T19:15:38.211Z,7.60
2017-09-01T19:17:48.863Z,7.50
2017-09-01T19:19:58.837Z,7.73
2017-09-01T19:22:05.812Z,7.27
2017-09-01T19:24:16.786Z,7.07
2017-09-01T19:26:24.866Z,8.20
2017-09-01T19:28:33.276Z,7.13
2017-09-01T19:47:58.484Z,8.30
2017-09-01T19:50:09.476Z,8.17
2017-09-01T19:52:17.557Z,7.63
2017-09-01T19:54:22.892Z,7.57
2017-09-01T19:56:33.353Z,7.60
2017-09-01T19:58:41.247Z,7.43
2017-09-01T20:00:52.364Z,7.57
2017-09-01T20:03:00.828Z,7.90
2017-09-01T20:05:11.086Z,8.40
2017-09-01T20:07:21.032Z,7.27
2017-09-01T20:09:27.697Z,8.50
2017-09-01T20:11:39.219Z,7.70
2017-09-01T20:13:47.075Z,6.93
2017-09-01T20:15:54.234Z,7.70
2017-09-01T20:35:20.489Z,7.27
2017-09-01T20:37:31.946Z,8.20
2017-09-01T20:39:40.171Z,7.20
2017-09-01T20:41:53.858Z,7.07
2017-09-01T20:44:01.834Z,6.90
2017-09-01T20:46:08.778Z,7.90
2017-09-01T20:48:17.498Z,7.67
2017-09-01T20:50:27.757Z,7.30
2017-09-01T20:52:37.731Z,8.07
2017-09-01T20:54:45.704Z,6.67
2017-09-01T20:56:54.679Z,7.37
2017-09-01T20:59:02.615Z,7.57
2017-09-01T21:01:11.542Z,7.20
2017-09-01T21:03:20.149Z,7.13
2017-09-01T21:05:27.581Z,6.60
2017-09-01T21:07:37.555Z,7.90
2017-09-01T21:09:46.534Z,7.53
2017-09-01T21:11:54.713Z,6.80
2017-09-01T21:14:06.090Z,7.67
2017-09-01T21:16:15.448Z,6.83
2017-09-01T21:18:20.551Z,6.30
2017-09-01T21:20:29.512Z,6.83
2017-09-01T21:22:36.426Z,6.10
2017-09-01T21:24:43.420Z,7.13
2017-09-01T21:26:51.342Z,7.00
2017-09-01T21:29:00.303Z,7.43
2017-09-01T21:31:10.271Z,6.70
2017-09-01T21:33:20.031Z,7.60
2017-09-01T21:35:30.220Z,6.00
2017-09-01T21:37:38.195Z,7.13
2017-09-01T21:39:45.057Z,6.50
2017-09-01T21:41:52.134Z,7.00
2017-09-01T21:44:00.120Z,6.97
2017-09-01T21:46:10.796Z,6.33
2017-09-01T21:48:19.414Z,6.90
2017-09-01T21:50:28.041Z,6.80
2017-09-01T21:52:37.017Z,7.10
2017-09-01T21:54:45.989Z,6.60
2017-09-01T21:56:55.404Z,7.20
2017-09-01T21:59:01.046Z,7.47
2017-09-01T22:01:19.912Z,6.80
2017-09-01T22:03:28.617Z,7.33
2017-09-01T22:05:38.460Z,6.40
2017-09-01T22:07:47.836Z,6.97
2017-09-01T22:09:56.609Z,7.17
2017-09-01T22:12:06.783Z,7.40
2017-09-01T22:14:13.756Z,6.83
2017-09-01T22:16:21.328Z,7.10
2017-09-01T22:18:29.709Z,5.83
2017-09-01T22:20:38.559Z,6.13
2017-09-01T22:22:48.678Z,7.10
2017-09-01T22:24:57.421Z,6.60
2017-09-01T22:27:04.610Z,6.87
2017-09-01T22:29:09.943Z,6.90
2017-09-01T22:31:21.553Z,6.20
2017-09-01T22:33:32.528Z,6.43
2017-09-01T22:35:43.500Z,6.40
2017-09-01T22:37:51.476Z,7.20
2017-09-01T22:40:00.586Z,7.10
2017-09-01T22:42:08.424Z,7.90
2017-09-01T22:44:17.204Z,7.07
2017-09-01T22:46:26.022Z,6.93
2017-09-01T22:48:35.146Z,6.73
2017-09-01T22:50:47.552Z,7.37
2017-09-01T22:52:58.296Z,6.80
2017-09-01T22:55:08.270Z,6.87
2017-09-01T22:57:18.251Z,7.67
2017-09-01T22:59:29.220Z,6.60
2017-09-01T23:01:40.762Z,7.30
2017-09-01T23:03:51.168Z,7.40
2017-09-01T23:05:56.967Z,7.20
2017-09-01T23:08:05.116Z,6.60
2017-09-01T23:10:14.397Z,6.53
2017-09-01T23:12:25.068Z,7.37
2017-09-01T23:14:34.904Z,7.13
2017-09-01T23:16:45.872Z,6.83
2017-09-01T23:18:55.988Z,6.40
2017-09-01T23:21:01.971Z,6.63
2017-09-01T23:23:10.932Z,6.90
2017-09-01T23:25:19.907Z,5.97
2017-09-01T23:27:28.880Z,6.87
2017-09-01T23:29:37.969Z,6.00
2017-09-01T23:31:46.478Z,8.07
2017-09-01T23:33:56.808Z,6.47
2017-09-01T23:36:09.242Z,6.73
2017-09-01T23:38:21.752Z,7.30
2017-09-01T23:40:29.723Z,6.77
2017-09-01T23:42:40.613Z,6.70
2017-09-01T23:44:50.670Z,7.40
2017-09-01T23:47:01.644Z,7.67
2017-09-01T23:49:11.264Z,8.00
2017-09-01T23:51:19.593Z,7.63
2017-09-01T23:53:30.567Z,8.43
2017-09-01T23:55:40.278Z,7.50
2017-09-01T23:57:50.123Z,7.53
2017-09-01T23:59:56.491Z,7.77
